Time;durP1;ratioP1;P1;durP2;ratioP2;P2;SDS_P1;SDS_P2;PMS_P1;PMS_P2;Temp;Humidity;BMP_temperature;BMP_pressure;BME280_temperature;BME280_humidity;BME280_pressure;Samples;Min_cycle;Max_cycle;Signal;HPM_P1;HPM_P2
2022/12/25 00:00:02;;;;;;;3.53;2.53;;;7.70;99.90;;;;;;6178863;23;20443;-74
2022/12/25 00:02:29;;;;;;;3.67;2.67;;;7.70;99.90;;;;;;6179472;23;20404;-74
2022/12/25 00:04:56;;;;;;;2.67;2.43;;;7.70;99.90;;;;;;6179590;23;20396;-74
2022/12/25 00:07:26;;;;;;;2.50;2.10;;;7.60;99.90;;;;;;6178878;23;20546;-74
2022/12/25 00:09:53;;;;;;;3.43;2.40;;;7.50;99.90;;;;;;6179047;23;20997;-73
2022/12/25 00:12:21;;;;;;;2.63;2.10;;;7.50;99.90;;;;;;6179147;23;20459;-74
2022/12/25 00:14:49;;;;;;;2.10;1.87;;;7.60;99.90;;;;;;6179144;23;20940;-73
2022/12/25 00:17:21;;;;;;;2.57;2.07;;;7.60;99.90;;;;;;6179812;23;20400;-72
2022/12/25 00:19:48;;;;;;;4.60;2.50;;;7.70;99.90;;;;;;6179014;23;20381;-72
2022/12/25 00:22:15;;;;;;;6.20;2.87;;;7.50;99.90;;;;;;6179127;23;20431;-72
2022/12/25 00:24:42;;;;;;;3.37;2.20;;;7.50;99.90;;;;;;6179266;23;20431;-72
2022/12/25 00:27:09;;;;;;;3.40;3.00;;;7.40;99.90;;;;;;6179344;23;20448;-75
2022/12/25 00:29:43;;;;;;;3.43;3.07;;;7.30;99.90;;;;;;6179680;23;20487;-75
2022/12/25 00:32:16;;;;;;;5.30;3.60;;;7.20;99.90;;;;;;6179484;23;20424;-73
2022/12/25 00:34:43;;;;;;;4.63;3.47;;;7.20;99.90;;;;;;6179119;23;20412;-73
2022/12/25 00:37:10;;;;;;;5.07;3.30;;;7.10;99.90;;;;;;6179130;23;20423;-73
2022/12/25 00:39:37;;;;;;;4.00;2.87;;;7.10;99.90;;;;;;6179142;23;20424;-73
2022/12/25 00:42:19;;;;;;;4.57;3.03;;;7.00;99.90;;;;;;6179338;23;20424;-73
2022/12/25 00:44:55;;;;;;;4.17;3.17;;;7.00;99.90;;;;;;6179279;23;20874;-73
2022/12/25 00:47:23;;;;;;;7.90;3.10;;;7.10;99.90;;;;;;6179232;23;20432;-73
2022/12/25 00:49:50;;;;;;;4.20;2.97;;;7.10;99.90;;;;;;6179253;23;20427;-73
2022/12/25 00:52:17;;;;;;;3.20;2.90;;;7.10;99.90;;;;;;6178765;23;20960;-73
2022/12/25 00:54:44;;;;;;;6.43;3.07;;;7.00;99.90;;;;;;6179318;23;20392;-72
2022/12/25 00:59:52;;;;;;;3.00;2.67;;;7.00;99.90;;;;;;6178997;23;20404;-72
2022/12/25 01:02:25;;;;;;;2.83;2.63;;;6.90;99.90;;;;;;6179233;23;21248;-74
2022/12/25 01:04:55;;;;;;;4.03;2.50;;;6.90;99.90;;;;;;6196551;23;20392;-72
2022/12/25 01:07:23;;;;;;;3.43;2.70;;;6.90;99.90;;;;;;6181724;23;20466;-72
2022/12/25 01:12:37;;;;;;;3.00;2.30;;;6.90;99.90;;;;;;6180932;23;20897;-72
2022/12/25 01:15:05;;;;;;;3.27;2.60;;;7.00;99.90;;;;;;6181109;23;20404;-72
2022/12/25 01:17:33;;;;;;;4.70;2.90;;;6.90;99.90;;;;;;6181286;23;20458;-74
2022/12/25 01:20:02;;;;;;;2.53;2.27;;;6.90;99.90;;;;;;6181524;23;21293;-72
2022/12/25 01:22:29;;;;;;;1.97;1.73;;;7.00;99.90;;;;;;6181361;23;20454;-72
2022/12/25 01:24:56;;;;;;;5.40;2.00;;;7.10;99.90;;;;;;6180912;23;20499;-72
2022/12/25 01:27:22;;;;;;;3.93;2.10;;;7.00;99.90;;;;;;6180347;23;20475;-72
2022/12/25 01:29:52;;;;;;;2.67;2.03;;;7.10;99.90;;;;;;6180838;23;20447;-72
2022/12/25 01:32:25;;;;;;;2.63;2.43;;;7.20;99.90;;;;;;6180977;23;20494;-74
2022/12/25 01:34:53;;;;;;;2.10;2.00;;;7.30;99.90;;;;;;6180798;23;20377;-73
2022/12/25 01:37:21;;;;;;;2.60;1.87;;;7.40;99.90;;;;;;6180827;23;20444;-72
2022/12/25 01:39:48;;;;;;;2.40;1.77;;;7.30;99.90;;;;;;6180540;23;20423;-72
2022/12/25 01:42:17;;;;;;;1.87;1.70;;;7.20;99.90;;;;;;6180139;23;20446;-72
2022/12/25 01:45:31;;;;;;;2.60;2.40;;;7.20;99.90;;;;;;6180645;23;20397;-72
2022/12/25 01:48:06;;;;;;;1.70;1.40;;;7.30;99.90;;;;;;6117947;23;20572;-71
2022/12/25 01:50:34;;;;;;;2.00;1.60;;;7.40;99.90;;;;;;6176607;23;20635;-72
2022/12/25 01:53:03;;;;;;;1.87;1.47;;;7.40;99.90;;;;;;6180375;23;20392;-74
2022/12/25 01:55:32;;;;;;;1.93;1.23;;;7.30;99.90;;;;;;6180766;23;20896;-74
2022/12/25 01:58:03;;;;;;;1.27;1.10;;;7.30;99.90;;;;;;6180987;23;20742;-74
2022/12/25 02:00:32;;;;;;;1.70;1.40;;;7.40;99.90;;;;;;6180904;23;20392;-75
2022/12/25 02:02:59;;;;;;;1.80;1.63;;;7.50;99.90;;;;;;6180521;23;20420;-74
2022/12/25 02:05:28;;;;;;;3.00;1.40;;;7.50;99.90;;;;;;6180385;23;20451;-72
2022/12/25 02:08:06;;;;;;;3.53;1.47;;;7.40;99.90;;;;;;6180312;23;20446;-72
2022/12/25 02:10:33;;;;;;;2.00;1.40;;;7.40;99.90;;;;;;6180227;23;20831;-74
2022/12/25 02:13:07;;;;;;;2.00;1.33;;;7.30;99.90;;;;;;6180185;23;20416;-72
2022/12/25 02:15:43;;;;;;;1.87;1.30;;;7.40;99.90;;;;;;6179480;23;20396;-73
2022/12/25 02:18:20;;;;;;;1.63;1.20;;;7.30;99.90;;;;;;6180835;23;20420;-73
2022/12/25 02:21:08;;;;;;;2.13;1.77;;;7.40;99.90;;;;;;6180545;23;20436;-73
2022/12/25 02:24:09;;;;;;;1.30;1.20;;;7.30;99.90;;;;;;6180698;23;20443;-73
2022/12/25 02:29:50;;;;;;;1.63;1.50;;;7.30;99.90;;;;;;6180016;23;20769;-71
2022/12/25 02:32:24;;;;;;;2.17;1.20;;;7.30;99.90;;;;;;6179542;23;20431;-72
2022/12/25 02:34:56;;;;;;;1.47;1.37;;;7.20;99.90;;;;;;6180057;23;20470;-73
2022/12/25 02:37:27;;;;;;;1.67;1.30;;;7.40;99.90;;;;;;6180206;23;20419;-73
2022/12/25 02:40:01;;;;;;;2.23;1.27;;;7.40;99.90;;;;;;6180030;23;20420;-72
2022/12/25 03:07:43;;;;;;;1.10;0.93;;;7.40;99.90;;;;;;6180109;23;20783;-71
2022/12/25 03:13:03;;;;;;;1.10;0.90;;;7.40;99.90;;;;;;6179603;23;20387;-71
2022/12/25 03:18:25;;;;;;;2.47;1.40;;;7.50;99.90;;;;;;6178802;23;20455;-71
2022/12/25 03:31:10;;;;;;;1.23;1.13;;;7.60;99.90;;;;;;6179440;23;20396;-71
2022/12/25 03:32:14;;;;;;;1.90;1.00;;;7.50;99.90;;;;;;6179507;23;20746;-71
2022/12/25 04:36:31;;;;;;;3.17;1.10;;;7.60;99.90;;;;;;6179035;23;20712;-73
2022/12/25 04:38:58;;;;;;;1.23;1.13;;;7.60;99.90;;;;;;6178278;23;20932;-71
2022/12/25 04:41:26;;;;;;;1.37;1.10;;;7.70;99.90;;;;;;6180919;23;20435;-71
2022/12/25 04:43:53;;;;;;;1.20;1.00;;;7.60;99.90;;;;;;6181304;23;20400;-71
2022/12/25 04:46:20;;;;;;;2.40;1.10;;;7.70;99.90;;;;;;6181072;23;20467;-74
2022/12/25 04:48:51;;;;;;;1.27;1.17;;;7.60;99.90;;;;;;6180359;23;21056;-71
2022/12/25 04:51:20;;;;;;;1.17;1.07;;;7.50;99.90;;;;;;6181174;23;20645;-70
2022/12/25 04:53:48;;;;;;;1.20;1.10;;;7.60;99.90;;;;;;6181435;23;20408;-70
2022/12/25 04:56:16;;;;;;;1.50;1.07;;;7.50;99.90;;;;;;6180637;23;20464;-71
2022/12/25 04:58:45;;;;;;;1.63;1.20;;;7.60;99.90;;;;;;6180981;23;20435;-71
2022/12/25 05:01:12;;;;;;;1.30;1.10;;;7.60;99.90;;;;;;6180756;23;20812;-70
2022/12/25 05:03:40;;;;;;;1.43;1.30;;;7.70;99.90;;;;;;6180248;23;20863;-71
2022/12/25 05:06:07;;;;;;;2.40;1.33;;;7.50;99.90;;;;;;6180882;23;20918;-72
2022/12/25 05:08:41;;;;;;;1.50;1.13;;;7.30;99.90;;;;;;6180748;23;21026;-72
2022/12/25 05:11:09;;;;;;;1.83;1.00;;;7.40;99.90;;;;;;6180924;23;20792;-72
2022/12/25 05:13:36;;;;;;;1.20;1.10;;;7.50;99.90;;;;;;6180707;23;20392;-72
2022/12/25 05:16:08;;;;;;;1.53;1.10;;;7.50;99.90;;;;;;6180391;23;20389;-72
2022/12/25 05:18:35;;;;;;;1.40;1.23;;;7.50;99.90;;;;;;6180331;23;20451;-72
2022/12/25 05:21:06;;;;;;;1.87;1.30;;;7.50;99.90;;;;;;6180677;23;20416;-72
2022/12/25 05:23:33;;;;;;;1.63;1.40;;;7.50;99.90;;;;;;6180697;23;20897;-72
2022/12/25 05:26:04;;;;;;;1.73;1.47;;;7.40;99.90;;;;;;6181216;23;20450;-72
2022/12/25 05:28:31;;;;;;;2.53;1.40;;;7.40;99.90;;;;;;6180677;23;20424;-72
2022/12/25 05:31:05;;;;;;;4.90;1.30;;;7.20;99.90;;;;;;6180217;23;20450;-71
2022/12/25 05:33:34;;;;;;;2.73;2.10;;;7.30;99.90;;;;;;6180487;23;20964;-73
2022/12/25 05:36:03;;;;;;;2.60;1.43;;;7.10;99.90;;;;;;6180300;23;20428;-73
2022/12/25 05:38:30;;;;;;;1.93;1.80;;;7.00;99.90;;;;;;6180514;23;20435;-72
2022/12/25 05:41:01;;;;;;;2.20;1.90;;;7.10;99.90;;;;;;6180674;23;20459;-72
2022/12/25 05:43:28;;;;;;;2.93;1.77;;;7.00;99.90;;;;;;6180307;23;20439;-71
2022/12/25 05:45:55;;;;;;;4.57;1.90;;;7.10;99.90;;;;;;6180437;23;20447;-71
2022/12/25 05:48:22;;;;;;;1.60;1.50;;;7.20;99.90;;;;;;6180066;23;20492;-71
2022/12/25 05:50:52;;;;;;;2.77;2.03;;;7.20;99.90;;;;;;6180764;23;20422;-88
2022/12/25 05:53:19;;;;;;;1.37;1.27;;;7.10;99.90;;;;;;6182078;23;21108;-88
2022/12/25 05:55:46;;;;;;;1.63;1.20;;;7.10;99.90;;;;;;6182496;23;20419;-89
2022/12/25 05:58:13;;;;;;;2.03;1.30;;;7.20;99.90;;;;;;6182195;23;20966;-87
2022/12/25 06:00:44;;;;;;;1.43;1.20;;;7.20;99.90;;;;;;6181153;23;21127;-89
2022/12/25 06:03:11;;;;;;;1.90;1.47;;;7.20;99.90;;;;;;6181906;23;20513;-87
2022/12/25 06:05:38;;;;;;;1.70;1.20;;;7.30;99.90;;;;;;6182817;23;20404;-88
2022/12/25 06:08:12;;;;;;;1.90;1.50;;;7.30;99.90;;;;;;6182841;23;20444;-87
2022/12/25 06:10:39;;;;;;;1.60;1.27;;;7.20;99.90;;;;;;6182377;23;20451;-89
2022/12/25 06:13:06;;;;;;;1.53;1.43;;;7.30;99.90;;;;;;6183310;23;20397;-87
2022/12/25 06:15:33;;;;;;;5.30;1.60;;;7.20;99.90;;;;;;6183165;23;20486;-88
2022/12/25 06:18:00;;;;;;;1.50;1.40;;;7.00;99.90;;;;;;6185221;23;20414;-88
2022/12/25 06:20:27;;;;;;;3.83;1.47;;;7.00;99.90;;;;;;6186078;23;20416;-89
2022/12/25 06:22:54;;;;;;;1.50;1.40;;;7.00;99.90;;;;;;6188413;23;20420;-88
2022/12/25 06:28:13;;;;;;;1.93;1.30;;;6.90;99.90;;;;;;6182523;23;20436;-87
2022/12/25 06:30:40;;;;;;;1.73;1.30;;;6.80;99.90;;;;;;6185896;23;20436;-89
2022/12/25 06:33:06;;;;;;;2.60;1.60;;;6.90;99.90;;;;;;6185932;23;20424;-87
2022/12/25 06:35:33;;;;;;;4.30;2.90;;;6.90;99.90;;;;;;6187938;23;20483;-92
2022/12/25 06:38:00;;;;;;;3.50;1.93;;;6.90;99.90;;;;;;6197528;23;20782;-92
2022/12/25 06:40:29;;;;;;;1.40;1.30;;;6.90;99.90;;;;;;6203774;23;20408;-90
2022/12/25 06:42:57;;;;;;;1.70;1.60;;;7.10;99.90;;;;;;6204962;23;20584;-91
2022/12/25 06:45:24;;;;;;;1.40;1.30;;;7.00;99.90;;;;;;6208014;23;20400;-91
2022/12/25 06:47:51;;;;;;;1.60;1.50;;;7.10;99.90;;;;;;6202878;23;20428;-90
2022/12/25 06:50:18;;;;;;;2.70;1.60;;;7.10;99.90;;;;;;6202743;23;20412;-90
2022/12/25 06:52:45;;;;;;;1.60;1.30;;;7.10;99.90;;;;;;6204819;23;20466;-90
2022/12/25 06:55:20;;;;;;;1.93;1.50;;;7.20;99.90;;;;;;6203534;23;20498;-91
2022/12/25 06:57:49;;;;;;;2.77;1.63;;;7.20;99.90;;;;;;6197098;23;20407;-92
2022/12/25 07:00:16;;;;;;;2.10;1.63;;;7.10;99.90;;;;;;6196469;23;20420;-92
2022/12/25 07:02:48;;;;;;;3.40;2.20;;;7.10;99.90;;;;;;6200708;23;20416;-91
2022/12/25 07:05:15;;;;;;;1.43;1.33;;;7.10;99.90;;;;;;6208092;23;20415;-88
2022/12/25 07:07:45;;;;;;;1.60;1.50;;;7.00;99.90;;;;;;6209605;23;20404;-90
2022/12/25 07:10:15;;;;;;;2.10;1.50;;;6.90;99.90;;;;;;6207409;23;20427;-91
2022/12/25 07:12:42;;;;;;;1.33;1.07;;;6.90;99.90;;;;;;6195936;23;20416;-83
2022/12/25 07:15:20;;;;;;;1.40;1.30;;;6.90;99.90;;;;;;6196639;23;20882;-89
2022/12/25 07:17:47;;;;;;;1.70;1.30;;;7.00;99.90;;;;;;6201973;23;20411;-87
2022/12/25 07:20:20;;;;;;;1.37;1.27;;;7.10;99.90;;;;;;6195446;23;20496;-89
2022/12/25 07:22:47;;;;;;;2.47;1.73;;;7.20;99.90;;;;;;6194548;23;20479;-92
2022/12/25 07:25:14;;;;;;;1.87;1.30;;;7.10;99.90;;;;;;6192532;23;20427;-91
2022/12/25 07:27:41;;;;;;;1.40;1.20;;;7.10;99.90;;;;;;6191433;23;20416;-92
2022/12/25 07:30:11;;;;;;;2.50;1.13;;;7.20;99.90;;;;;;6190981;23;20424;-90
2022/12/25 07:32:38;;;;;;;1.90;1.70;;;7.00;99.90;;;;;;6182759;23;20470;-86
2022/12/25 07:35:06;;;;;;;3.00;1.30;;;6.90;99.90;;;;;;6194286;23;20419;-90
2022/12/25 07:37:33;;;;;;;1.80;1.37;;;6.90;99.90;;;;;;6208928;23;20396;-88
2022/12/25 07:42:40;;;;;;;1.60;1.50;;;7.10;99.90;;;;;;6184911;23;21004;-88
2022/12/25 07:45:10;;;;;;;1.87;1.20;;;7.20;99.90;;;;;;6183964;23;20981;-88
2022/12/25 07:47:37;;;;;;;2.53;1.40;;;7.30;99.90;;;;;;6182007;23;20458;-87
2022/12/25 07:50:05;;;;;;;3.27;2.80;;;7.50;99.90;;;;;;6183386;23;20480;-91
2022/12/25 07:52:37;;;;;;;1.67;1.23;;;7.50;99.90;;;;;;6183075;23;20422;-90
2022/12/25 07:55:05;;;;;;;3.07;1.23;;;7.60;99.90;;;;;;6183170;23;20408;-84
2022/12/25 07:57:32;;;;;;;1.67;1.57;;;7.70;99.90;;;;;;6182578;23;20451;-90
2022/12/25 07:59:59;;;;;;;1.77;1.30;;;7.80;99.90;;;;;;6182646;23;20550;-89
2022/12/25 08:02:28;;;;;;;2.70;1.27;;;7.90;99.90;;;;;;6183936;23;20833;-85
2022/12/25 08:05:01;;;;;;;1.43;1.20;;;7.90;99.90;;;;;;6183661;23;20503;-93
2022/12/25 08:07:28;;;;;;;1.50;1.40;;;8.00;99.90;;;;;;6184658;23;20418;-92
2022/12/25 08:09:55;;;;;;;1.47;1.27;;;8.00;99.90;;;;;;6184602;23;20507;-92
2022/12/25 08:12:22;;;;;;;1.30;1.10;;;8.10;99.90;;;;;;6185261;23;20825;-92
2022/12/25 08:14:48;;;;;;;1.50;1.23;;;8.00;99.90;;;;;;6183437;23;20969;-92
2022/12/25 08:17:15;;;;;;;1.53;1.40;;;8.20;99.90;;;;;;6185962;23;20814;-93
2022/12/25 08:19:44;;;;;;;2.00;1.30;;;8.10;99.90;;;;;;6185288;23;20450;-92
2022/12/25 08:22:13;;;;;;;3.53;2.13;;;7.80;99.90;;;;;;6184114;23;20443;-92
2022/12/25 08:24:40;;;;;;;2.33;1.23;;;8.20;99.90;;;;;;6185674;23;20419;-92
2022/12/25 08:27:07;;;;;;;1.87;1.27;;;8.20;99.90;;;;;;6184052;23;20949;-92
2022/12/25 08:29:34;;;;;;;1.10;1.00;;;8.30;99.90;;;;;;6183440;23;20464;-85
2022/12/25 08:32:01;;;;;;;1.30;1.17;;;8.30;99.90;;;;;;6183664;23;20905;-92
2022/12/25 08:34:27;;;;;;;4.70;1.60;;;8.30;99.90;;;;;;6184281;23;20479;-93
2022/12/25 08:36:57;;;;;;;2.03;1.27;;;8.30;99.90;;;;;;6182395;23;20419;-92
2022/12/25 08:39:24;;;;;;;2.27;1.60;;;8.30;99.90;;;;;;6184807;23;20431;-92
2022/12/25 08:41:51;;;;;;;1.80;1.40;;;8.30;99.90;;;;;;6183845;23;20450;-92
2022/12/25 08:44:18;;;;;;;2.40;1.00;;;8.40;99.90;;;;;;6185886;23;20442;-93
2022/12/25 08:46:45;;;;;;;2.03;1.20;;;8.40;99.90;;;;;;6185412;23;20467;-93
2022/12/25 08:49:12;;;;;;;2.07;1.20;;;8.40;99.90;;;;;;6183053;23;20532;-89
2022/12/25 08:51:39;;;;;;;4.50;2.20;;;8.40;99.90;;;;;;6182043;23;20443;-90
2022/12/25 08:54:10;;;;;;;1.33;1.23;;;8.40;99.90;;;;;;6185528;23;20511;-93
2022/12/25 08:56:37;;;;;;;1.63;1.27;;;8.40;99.90;;;;;;6187475;23;20525;-92
2022/12/25 08:59:04;;;;;;;1.30;1.20;;;9.00;99.90;;;;;;6186775;23;20791;-92
2022/12/25 09:01:31;;;;;;;1.60;1.30;;;8.50;99.90;;;;;;6185867;23;20462;-92
2022/12/25 09:03:58;;;;;;;3.10;1.37;;;8.70;99.90;;;;;;6186780;23;20487;-93
2022/12/25 09:06:25;;;;;;;1.30;1.20;;;8.80;99.90;;;;;;6185341;23;20420;-91
2022/12/25 09:08:52;;;;;;;2.53;1.33;;;8.90;99.90;;;;;;6186017;23;20502;-92
2022/12/25 09:11:22;;;;;;;1.33;1.00;;;9.00;99.90;;;;;;6184717;23;20470;-89
2022/12/25 09:13:49;;;;;;;1.40;1.30;;;9.10;99.90;;;;;;6179897;23;20416;-76
2022/12/25 09:16:19;;;;;;;1.23;1.10;;;9.20;99.90;;;;;;6177703;23;20411;-73
2022/12/25 09:18:47;;;;;;;2.53;1.70;;;9.20;99.90;;;;;;6177999;23;20528;-70
2022/12/25 09:21:19;;;;;;;1.53;1.20;;;9.30;99.90;;;;;;6177262;23;20412;-85
2022/12/25 09:23:46;;;;;;;1.20;1.10;;;9.20;99.90;;;;;;6176903;23;20487;-87
2022/12/25 09:26:15;;;;;;;1.83;1.37;;;9.20;99.90;;;;;;6179443;23;20415;-88
2022/12/25 09:28:47;;;;;;;2.70;1.30;;;9.00;99.90;;;;;;6181138;23;20439;-88
2022/12/25 09:31:13;;;;;;;2.30;1.30;;;9.10;99.90;;;;;;6181215;23;20404;-84
2022/12/25 09:33:40;;;;;;;3.20;1.57;;;9.10;99.90;;;;;;6181198;23;20423;-71
2022/12/25 09:36:09;;;;;;;2.17;1.50;;;9.20;99.90;;;;;;6181699;23;20443;-88
2022/12/25 09:38:45;;;;;;;5.30;1.40;;;9.30;99.90;;;;;;6181837;23;20480;-89
2022/12/25 09:41:17;;;;;;;1.67;1.40;;;9.30;99.90;;;;;;6179768;23;20415;-84
2022/12/25 09:43:48;;;;;;;1.27;1.10;;;9.30;99.90;;;;;;6182173;23;20526;-83
2022/12/25 09:46:19;;;;;;;1.20;1.10;;;9.30;99.90;;;;;;6182851;23;20376;-81
2022/12/25 09:49:01;;;;;;;1.93;1.40;;;9.50;99.90;;;;;;6182431;23;20470;-80
2022/12/25 09:51:33;;;;;;;5.60;1.80;;;9.50;99.90;;;;;;6186268;23;20404;-82
2022/12/25 09:54:04;;;;;;;4.43;1.50;;;9.50;99.90;;;;;;6186007;23;20492;-80
2022/12/25 09:56:33;;;;;;;46.13;33.40;;;9.50;99.90;;;;;;6195185;23;20424;-88
2022/12/25 09:59:01;;;;;;;24.13;3.07;;;9.50;99.90;;;;;;6195622;23;20412;-91
2022/12/25 10:01:34;;;;;;;1.57;1.30;;;9.70;99.90;;;;;;6198097;23;20420;-90
2022/12/25 10:04:22;;;;;;;1.63;1.33;;;9.80;99.90;;;;;;6198583;23;20432;-89
2022/12/25 10:07:01;;;;;;;2.27;1.80;;;9.80;99.90;;;;;;6196042;23;20416;-87
2022/12/25 10:09:47;;;;;;;1.83;1.73;;;9.90;99.90;;;;;;6202690;23;20467;-78
2022/12/25 10:12:33;;;;;;;1.63;1.30;;;10.00;99.90;;;;;;6182968;23;20392;-89
2022/12/25 10:15:14;;;;;;;2.90;1.53;;;10.00;99.90;;;;;;6183282;23;20426;-88
2022/12/25 10:17:55;;;;;;;1.60;1.47;;;10.10;99.90;;;;;;6182300;23;20952;-90
2022/12/25 10:20:34;;;;;;;1.30;1.20;;;10.10;99.90;;;;;;6184432;23;20404;-89
2022/12/25 10:23:04;;;;;;;1.70;1.60;;;10.10;99.90;;;;;;6184035;23;20474;-89
2022/12/25 10:25:32;;;;;;;2.33;1.73;;;10.20;99.90;;;;;;6184459;23;20427;-89
2022/12/25 10:28:16;;;;;;;1.60;1.30;;;10.40;99.90;;;;;;6184163;23;20443;-90
2022/12/25 10:30:45;;;;;;;1.80;1.37;;;10.30;99.90;;;;;;6182447;23;20443;-90
2022/12/25 10:33:14;;;;;;;3.13;1.63;;;10.40;99.90;;;;;;6183237;23;20416;-90
2022/12/25 10:35:41;;;;;;;1.93;1.50;;;10.40;99.90;;;;;;6183096;23;20431;-91
2022/12/25 10:38:14;;;;;;;4.40;1.50;;;10.40;99.90;;;;;;6183715;23;20439;-90
2022/12/25 10:40:54;;;;;;;1.80;1.50;;;10.50;99.90;;;;;;6183741;23;20432;-90
2022/12/25 10:43:26;;;;;;;1.50;1.40;;;10.50;99.90;;;;;;6184159;23;20415;-88
2022/12/25 10:45:55;;;;;;;2.90;1.73;;;10.70;99.90;;;;;;6183973;23;20466;-90
2022/12/25 10:48:26;;;;;;;3.00;1.63;;;10.80;99.90;;;;;;6180238;23;20447;-69
2022/12/25 10:50:53;;;;;;;1.53;1.43;;;10.90;99.90;;;;;;6178419;23;20468;-68
2022/12/25 10:53:23;;;;;;;1.87;1.40;;;11.00;99.90;;;;;;6178442;23;20937;-68
2022/12/25 10:56:01;;;;;;;1.50;1.37;;;11.20;99.90;;;;;;6179408;23;20462;-85
2022/12/25 10:58:28;;;;;;;1.93;1.37;;;11.20;99.90;;;;;;6178087;23;20439;-86
2022/12/25 11:00:59;;;;;;;1.50;1.30;;;11.30;99.90;;;;;;6179896;23;20415;-89
2022/12/25 11:03:29;;;;;;;1.60;1.40;;;11.40;99.90;;;;;;6178296;23;20478;-85
2022/12/25 11:05:56;;;;;;;3.20;1.63;;;11.40;99.90;;;;;;6179439;23;20759;-83
2022/12/25 11:08:25;;;;;;;2.33;1.63;;;11.50;99.90;;;;;;6180059;23;20474;-85
2022/12/25 11:10:55;;;;;;;2.50;1.53;;;11.70;99.90;;;;;;6179327;23;20475;-84
2022/12/25 11:13:24;;;;;;;3.87;1.57;;;11.80;99.90;;;;;;6178468;23;20840;-85
2022/12/25 11:16:01;;;;;;;1.87;1.77;;;11.80;99.90;;;;;;6179256;23;21147;-84
2022/12/25 11:18:34;;;;;;;1.83;1.23;;;12.00;99.90;;;;;;6180247;23;20436;-84
2022/12/25 11:21:03;;;;;;;2.20;1.83;;;12.10;99.90;;;;;;6179136;23;20765;-86
2022/12/25 11:23:32;;;;;;;2.00;1.43;;;12.30;99.90;;;;;;6178837;23;20413;-85
2022/12/25 11:26:02;;;;;;;2.43;1.90;;;12.40;99.90;;;;;;6178851;23;20426;-85
2022/12/25 11:28:32;;;;;;;4.10;2.90;;;12.60;99.90;;;;;;6178498;23;20415;-85
2022/12/25 11:31:02;;;;;;;3.00;1.60;;;12.80;99.90;;;;;;6178376;23;20734;-85
2022/12/25 11:33:35;;;;;;;3.33;1.70;;;12.90;99.90;;;;;;6178549;23;20412;-86
2022/12/25 11:36:15;;;;;;;2.20;1.20;;;13.10;99.90;;;;;;6179104;23;20439;-85
2022/12/25 11:38:42;;;;;;;2.10;1.87;;;13.70;99.90;;;;;;6177865;23;20498;-85
2022/12/25 11:41:12;;;;;;;1.73;1.50;;;14.50;99.90;;;;;;6178892;23;20443;-84
2022/12/25 11:43:46;;;;;;;2.07;1.60;;;14.90;99.90;;;;;;6178243;23;20807;-87
2022/12/25 11:46:19;;;;;;;1.77;1.40;;;15.20;99.90;;;;;;6178048;23;20473;-84
2022/12/25 11:48:54;;;;;;;2.00;1.40;;;15.60;99.90;;;;;;6179090;23;20460;-85
2022/12/25 11:51:23;;;;;;;1.60;1.50;;;15.60;99.90;;;;;;6178814;23;20472;-85
2022/12/25 11:53:53;;;;;;;3.03;1.73;;;15.80;99.90;;;;;;6176741;23;20416;-75
2022/12/25 11:56:23;;;;;;;2.20;1.87;;;16.10;99.90;;;;;;6178274;23;20389;-78
2022/12/25 11:58:52;;;;;;;3.13;1.80;;;16.20;99.90;;;;;;6177514;23;20734;-78
2022/12/25 12:01:28;;;;;;;5.73;1.50;;;16.20;99.90;;;;;;6177977;23;20401;-79
2022/12/25 12:04:06;;;;;;;2.13;1.60;;;16.00;99.90;;;;;;6177688;23;20554;-78
2022/12/25 12:06:46;;;;;;;1.80;1.70;;;15.80;99.90;;;;;;6177957;23;20385;-77
2022/12/25 12:09:30;;;;;;;1.33;1.23;;;15.60;99.90;;;;;;6178614;23;20801;-77
2022/12/25 12:12:06;;;;;;;1.73;1.50;;;15.60;99.90;;;;;;6178407;23;20380;-77
2022/12/25 12:14:45;;;;;;;1.77;1.60;;;15.70;99.90;;;;;;6177600;23;20422;-77
2022/12/25 12:17:13;;;;;;;1.30;1.20;;;15.90;99.90;;;;;;6177792;23;21106;-77
2022/12/25 12:19:42;;;;;;;2.20;1.30;;;16.40;99.90;;;;;;6177908;23;20444;-75
2022/12/25 12:22:28;;;;;;;2.23;1.70;;;16.80;99.90;;;;;;6177280;23;20491;-79
2022/12/25 12:25:00;;;;;;;1.33;1.23;;;17.20;99.90;;;;;;6178067;23;20495;-78
2022/12/25 12:27:33;;;;;;;1.80;1.27;;;17.30;99.90;;;;;;6178149;23;20711;-75
2022/12/25 12:30:00;;;;;;;2.30;1.57;;;17.50;99.90;;;;;;6177825;23;20978;-81
2022/12/25 12:32:39;;;;;;;1.50;1.20;;;17.40;99.90;;;;;;6178078;23;20816;-78
2022/12/25 12:35:15;;;;;;;2.83;1.80;;;17.10;99.90;;;;;;6177951;23;20380;-77
2022/12/25 12:37:44;;;;;;;1.93;1.40;;;16.80;99.90;;;;;;6176869;23;20397;-74
2022/12/25 12:40:27;;;;;;;2.00;1.30;;;16.90;99.90;;;;;;6181582;23;20406;-76
2022/12/25 12:42:56;;;;;;;2.13;1.37;;;16.90;99.90;;;;;;6188814;23;20755;-74
2022/12/25 12:45:27;;;;;;;1.77;1.37;;;16.60;99.90;;;;;;6181148;23;20403;-75
2022/12/25 12:47:54;;;;;;;1.50;1.33;;;16.40;99.90;;;;;;6176773;23;20683;-74
2022/12/25 12:50:32;;;;;;;4.63;1.70;;;16.00;99.90;;;;;;6176345;23;20716;-75
2022/12/25 12:53:04;;;;;;;1.80;1.23;;;15.90;99.90;;;;;;6176650;23;20533;-75
2022/12/25 12:55:33;;;;;;;1.67;1.20;;;16.30;99.90;;;;;;6175149;23;20416;-75
2022/12/25 12:58:02;;;;;;;1.40;1.30;;;16.60;99.90;;;;;;6176464;23;20412;-75
2022/12/25 13:00:41;;;;;;;1.70;1.60;;;16.80;99.90;;;;;;6177391;23;20404;-76
2022/12/25 13:03:22;;;;;;;1.90;1.80;;;17.00;99.90;;;;;;6178820;23;20677;-75
2022/12/25 13:05:57;;;;;;;2.83;1.67;;;17.50;99.90;;;;;;6179935;23;20538;-75
2022/12/25 13:08:35;;;;;;;1.43;1.30;;;17.80;99.90;;;;;;6180966;23;20395;-81
2022/12/25 13:11:13;;;;;;;2.67;2.47;;;18.10;99.90;;;;;;6179366;23;20443;-81
2022/12/25 13:13:41;;;;;;;4.43;1.60;;;18.40;99.90;;;;;;6178954;23;20431;-68
2022/12/25 13:16:21;;;;;;;392.63;322.13;;;18.40;99.90;;;;;;6179878;23;20411;-81
2022/12/25 13:18:51;;;;;;;3.30;2.77;;;18.20;99.90;;;;;;6179193;23;20399;-76
2022/12/25 13:21:23;;;;;;;2.70;2.00;;;18.30;99.90;;;;;;6179561;23;20758;-74
2022/12/25 13:23:56;;;;;;;1.50;1.40;;;18.10;99.90;;;;;;6180012;23;20407;-75
2022/12/25 13:26:24;;;;;;;1.47;1.37;;;18.10;99.90;;;;;;6180376;23;20417;-76
2022/12/25 13:28:54;;;;;;;1.40;1.30;;;17.90;99.90;;;;;;6179681;23;20393;-75
2022/12/25 13:31:24;;;;;;;1.43;1.33;;;17.60;99.90;;;;;;6180283;23;20988;-75
2022/12/25 13:33:56;;;;;;;2.73;1.90;;;17.40;99.90;;;;;;6180139;23;20750;-75
2022/12/25 13:36:34;;;;;;;4.50;2.83;;;17.30;99.90;;;;;;6180162;23;20407;-74
2022/12/25 13:39:02;;;;;;;3.93;1.77;;;17.20;99.90;;;;;;6179002;23;20747;-74
2022/12/25 13:44:24;;;;;;;5.13;3.63;;;18.00;99.90;;;;;;6180118;23;20570;-78
2022/12/25 13:46:51;;;;;;;4.97;3.57;;;18.20;99.90;;;;;;6179337;23;20769;-74
2022/12/25 13:49:20;;;;;;;3.47;2.80;;;18.20;99.90;;;;;;6178786;23;20965;-77
2022/12/25 13:51:52;;;;;;;2.30;2.10;;;17.90;99.90;;;;;;6179590;23;20439;-77
2022/12/25 13:54:19;;;;;;;4.20;1.90;;;17.50;99.90;;;;;;6178600;23;20953;-78
2022/12/25 13:56:49;;;;;;;2.70;2.50;;;17.40;99.90;;;;;;6180714;23;20420;-77
2022/12/25 13:59:18;;;;;;;2.47;2.00;;;18.10;99.90;;;;;;6180253;23;20688;-77
2022/12/25 14:01:49;;;;;;;1.97;1.40;;;19.30;99.90;;;;;;6179007;23;20432;-78
2022/12/25 14:04:19;;;;;;;1.60;1.50;;;20.30;99.90;;;;;;6179977;23;20408;-78
2022/12/25 14:06:46;;;;;;;2.57;2.17;;;20.30;99.90;;;;;;6180033;23;20483;-78
2022/12/25 14:09:15;;;;;;;3.37;2.00;;;19.40;99.90;;;;;;6179756;23;20823;-78
2022/12/25 14:11:48;;;;;;;2.23;2.00;;;18.30;99.90;;;;;;6179378;23;20476;-78
2022/12/25 14:14:19;;;;;;;2.00;1.90;;;17.10;99.90;;;;;;6179967;23;20447;-79
2022/12/25 14:16:48;;;;;;;1.80;1.50;;;16.10;99.90;;;;;;6178897;23;20415;-77
2022/12/25 14:19:26;;;;;;;2.23;2.00;;;15.40;99.90;;;;;;6179589;23;20491;-78
2022/12/25 14:21:58;;;;;;;2.43;1.97;;;14.90;99.90;;;;;;6179416;23;20412;-78
2022/12/25 14:24:28;;;;;;;2.10;1.90;;;14.70;99.90;;;;;;6180177;23;20396;-78
2022/12/25 14:27:00;;;;;;;2.60;2.40;;;14.40;99.90;;;;;;6179737;23;20415;-77
2022/12/25 14:29:35;;;;;;;2.73;1.90;;;14.10;99.90;;;;;;6179302;23;20787;-77
2022/12/25 14:32:05;;;;;;;2.80;1.90;;;13.90;99.90;;;;;;6177883;23;20486;-77
2022/12/25 14:34:33;;;;;;;3.10;2.00;;;13.80;99.90;;;;;;6179096;23;20447;-77
2022/12/25 14:37:01;;;;;;;2.17;1.57;;;13.60;99.90;;;;;;6181553;23;20418;-78
2022/12/25 14:39:34;;;;;;;2.43;1.83;;;13.50;99.90;;;;;;6179911;23;20443;-77
2022/12/25 14:42:16;;;;;;;3.17;2.10;;;13.50;99.90;;;;;;6179548;23;20381;-78
2022/12/25 14:44:43;;;;;;;2.40;2.13;;;13.40;99.90;;;;;;6179467;23;21164;-78
2022/12/25 14:47:16;;;;;;;2.50;1.90;;;13.30;99.90;;;;;;6180091;23;20396;-78
2022/12/25 14:49:44;;;;;;;3.80;3.13;;;13.20;99.90;;;;;;6179226;23;20973;-78
2022/12/25 14:52:19;;;;;;;3.63;2.03;;;13.10;99.90;;;;;;6179368;23;20448;-78
2022/12/25 14:54:49;;;;;;;4.03;2.00;;;13.00;99.90;;;;;;6179730;23;20450;-78
2022/12/25 14:57:26;;;;;;;4.33;2.13;;;12.80;99.90;;;;;;6179861;23;20503;-78
2022/12/25 14:59:59;;;;;;;1.90;1.80;;;12.70;99.90;;;;;;6179705;23;20416;-77
2022/12/25 15:02:28;;;;;;;6.10;3.00;;;12.70;99.90;;;;;;6179933;23;20381;-77
2022/12/25 15:04:55;;;;;;;2.80;2.60;;;12.60;99.90;;;;;;6179639;23;20785;-77
2022/12/25 15:07:26;;;;;;;2.40;2.13;;;12.50;99.90;;;;;;6179132;23;20455;-77